Time;durP1;ratioP1;P1;durP2;ratioP2;P2;SDS_P1;SDS_P2;PMS_P1;PMS_P2;Temp;Humidity;BMP_temperature;BMP_pressure;BME280_temperature;BME280_humidity;BME280_pressure;Samples;Min_cycle;Max_cycle;Signal;HPM_P1;HPM_P2
2021/11/17 02:27:25;;;;;;;22.20;13.98;;;11.40;99.90;;;;;;5073476;28;20558;-74
2021/11/17 02:30:09;;;;;;;24.63;14.38;;;11.40;99.90;;;;;;5039371;28;20060;-75
2021/11/17 02:32:38;;;;;;;23.73;14.00;;;11.40;99.90;;;;;;5037493;28;20106;-75
2021/11/17 02:35:28;;;;;;;22.98;14.93;;;11.40;99.90;;;;;;5053907;28;20052;-73
2021/11/17 02:38:21;;;;;;;24.25;15.10;;;11.40;99.90;;;;;;5066364;28;20043;-76
2021/11/17 02:41:04;;;;;;;23.60;14.35;;;11.40;99.90;;;;;;5056443;28;20024;-75
2021/11/17 02:43:53;;;;;;;21.75;14.07;;;11.40;99.90;;;;;;5073701;28;20032;-75
2021/11/17 02:46:25;;;;;;;31.23;16.65;;;11.40;99.90;;;;;;5039970;28;20444;-74
2021/11/17 02:49:00;;;;;;;25.20;15.52;;;11.40;99.90;;;;;;5073982;28;20025;-75
2021/11/17 02:52:04;;;;;;;25.85;14.63;;;11.40;99.90;;;;;;5056064;28;20370;-75
2021/11/17 02:54:50;;;;;;;27.13;14.70;;;11.40;99.90;;;;;;5072120;28;20031;-75
2021/11/17 02:57:34;;;;;;;24.02;15.23;;;11.40;99.90;;;;;;5052719;28;20037;-75
2021/11/17 03:00:10;;;;;;;29.27;14.90;;;11.40;99.90;;;;;;5073442;28;20021;-75
2021/11/17 03:02:57;;;;;;;26.05;15.82;;;11.30;99.90;;;;;;5071662;28;20033;-75
2021/11/17 03:05:35;;;;;;;25.65;15.95;;;11.30;99.90;;;;;;5073677;28;20020;-76
2021/11/17 03:08:25;;;;;;;21.92;14.10;;;11.30;99.90;;;;;;5073270;28;20029;-75
2021/11/17 03:10:58;;;;;;;23.08;15.55;;;11.40;99.90;;;;;;5055807;28;20485;-75
2021/11/17 03:13:52;;;;;;;25.27;15.50;;;11.30;99.90;;;;;;5041927;28;20057;-75
2021/11/17 03:16:47;;;;;;;28.08;15.60;;;11.30;99.90;;;;;;5050983;28;20029;-75
2021/11/17 03:19:24;;;;;;;25.27;14.32;;;11.40;99.90;;;;;;5038445;28;20037;-74
2021/11/17 03:22:16;;;;;;;23.45;14.98;;;11.40;99.90;;;;;;5053280;28;20071;-75
2021/11/17 03:24:53;;;;;;;24.60;15.48;;;11.30;99.90;;;;;;5058261;28;20040;-75
2021/11/17 03:28:01;;;;;;;23.73;15.35;;;11.30;99.90;;;;;;5062860;28;20036;-74
2021/11/17 03:30:33;;;;;;;27.30;15.63;;;11.30;99.90;;;;;;5021632;28;20519;-74
2021/11/17 03:33:10;;;;;;;23.67;15.00;;;11.20;99.90;;;;;;5059897;28;20053;-75
2021/11/17 03:35:57;;;;;;;26.33;16.75;;;11.20;99.90;;;;;;5059550;28;20403;-74
2021/11/17 03:38:32;;;;;;;23.40;15.35;;;11.20;99.90;;;;;;5079572;28;20043;-76
2021/11/17 03:41:26;;;;;;;24.88;15.38;;;11.20;99.90;;;;;;5073044;28;20032;-75
2021/11/17 03:44:17;;;;;;;26.05;15.45;;;11.20;99.90;;;;;;5043092;28;20492;-75
2021/11/17 03:47:01;;;;;;;27.60;15.47;;;11.20;99.90;;;;;;5054749;28;20423;-75
2021/11/17 03:49:45;;;;;;;22.55;14.80;;;11.10;99.90;;;;;;5076260;28;20384;-74
2021/11/17 03:52:16;;;;;;;25.52;15.57;;;11.10;99.90;;;;;;5085401;28;20029;-74
2021/11/17 03:54:57;;;;;;;26.35;16.45;;;11.10;99.90;;;;;;5054795;28;20029;-74
2021/11/17 03:57:43;;;;;;;27.15;16.80;;;11.00;99.90;;;;;;5086249;28;20671;-74
2021/11/17 04:00:27;;;;;;;24.90;15.63;;;11.00;99.90;;;;;;5054655;28;20041;-74
2021/11/17 04:03:15;;;;;;;25.35;15.63;;;11.10;99.90;;;;;;5052532;28;20381;-74
2021/11/17 04:06:23;;;;;;;23.15;15.60;;;11.10;99.90;;;;;;5054598;28;20060;-75
2021/11/17 04:09:05;;;;;;;25.95;16.02;;;11.10;99.90;;;;;;5023092;28;20036;-74
2021/11/17 04:11:33;;;;;;;24.67;15.88;;;11.00;99.90;;;;;;5072550;28;20492;-74
2021/11/17 04:14:40;;;;;;;26.90;17.00;;;11.00;99.90;;;;;;5072284;28;20056;-74
2021/11/17 04:17:18;;;;;;;28.50;15.75;;;11.00;99.90;;;;;;5052463;28;20022;-75
2021/11/17 04:20:06;;;;;;;24.77;15.32;;;10.90;99.90;;;;;;5039462;28;20032;-75
2021/11/17 04:22:32;;;;;;;28.95;16.98;;;11.00;99.90;;;;;;5082610;28;20111;-73
2021/11/17 04:25:20;;;;;;;27.08;16.50;;;11.00;99.90;;;;;;5052579;28;20021;-75
2021/11/17 04:27:49;;;;;;;29.92;17.20;;;10.90;99.90;;;;;;5039979;28;20028;-74
2021/11/17 04:30:20;;;;;;;30.50;16.60;;;11.00;99.90;;;;;;5072600;28;20028;-75
2021/11/17 04:33:15;;;;;;;29.23;15.63;;;11.00;99.90;;;;;;5071972;28;20021;-75
2021/11/17 04:35:50;;;;;;;28.55;15.88;;;10.90;99.90;;;;;;5066534;28;20041;-75
2021/11/17 04:38:49;;;;;;;30.00;16.90;;;10.90;99.90;;;;;;5071469;28;20064;-75
2021/11/17 04:42:00;;;;;;;29.63;16.23;;;10.90;99.90;;;;;;5068706;28;20049;-75
2021/11/17 04:44:44;;;;;;;36.03;16.58;;;10.90;99.90;;;;;;5029630;28;20037;-74
2021/11/17 04:47:24;;;;;;;24.33;16.00;;;10.90;99.90;;;;;;5071508;28;20032;-75
2021/11/17 04:49:49;;;;;;;28.58;16.52;;;10.90;99.90;;;;;;5054498;28;20028;-73
2021/11/17 04:52:21;;;;;;;29.58;17.13;;;10.90;99.90;;;;;;5063535;28;20033;-74
2021/11/17 04:55:07;;;;;;;26.00;16.27;;;10.90;99.90;;;;;;5044859;28;20473;-75
2021/11/17 04:57:39;;;;;;;32.75;17.10;;;10.90;99.90;;;;;;5075875;28;20397;-74
2021/11/17 05:00:35;;;;;;;26.15;16.50;;;11.00;99.90;;;;;;5017674;28;20465;-75
2021/11/17 05:03:23;;;;;;;42.85;16.73;;;11.00;99.90;;;;;;5046744;28;20123;-75
2021/11/17 05:05:55;;;;;;;26.90;16.52;;;11.10;99.90;;;;;;5057791;28;20035;-73
2021/11/17 05:08:41;;;;;;;30.98;16.75;;;11.10;99.90;;;;;;5075253;28;20021;-74
2021/11/17 05:11:16;;;;;;;32.38;17.10;;;11.10;99.90;;;;;;5076016;28;20043;-74
2021/11/17 05:13:55;;;;;;;28.63;16.63;;;11.10;99.90;;;;;;5056476;28;20377;-74
2021/11/17 05:16:35;;;;;;;26.05;16.15;;;11.20;99.90;;;;;;5078327;28;20032;-75
2021/11/17 05:19:16;;;;;;;33.95;18.42;;;11.20;99.90;;;;;;5057499;28;20131;-75
2021/11/17 05:22:00;;;;;;;31.88;15.68;;;11.20;99.90;;;;;;5060990;28;20384;-75
2021/11/17 05:24:44;;;;;;;29.45;17.30;;;11.10;99.90;;;;;;5057772;28;20031;-74
2021/11/17 05:27:47;;;;;;;31.48;18.00;;;11.10;99.90;;;;;;5072834;28;20075;-74
2021/11/17 05:30:22;;;;;;;31.60;17.52;;;11.20;99.90;;;;;;5055386;28;20036;-75
2021/11/17 05:33:03;;;;;;;32.67;16.95;;;11.20;99.90;;;;;;5055421;28;20074;-75
2021/11/17 05:35:47;;;;;;;29.58;17.50;;;11.10;99.90;;;;;;5058913;28;20056;-75
2021/11/17 05:38:35;;;;;;;27.95;17.55;;;11.10;99.90;;;;;;5077332;28;20434;-75
2021/11/17 05:41:32;;;;;;;27.92;16.75;;;11.10;99.90;;;;;;5071710;28;20077;-75
2021/11/17 05:43:58;;;;;;;30.08;17.27;;;11.20;99.90;;;;;;5035958;28;20021;-75
2021/11/17 05:46:33;;;;;;;29.77;16.90;;;11.20;99.90;;;;;;5054478;28;20554;-76
2021/11/17 05:49:04;;;;;;;26.88;16.58;;;11.20;99.90;;;;;;5036916;28;20036;-76
2021/11/17 05:52:09;;;;;;;27.67;15.70;;;11.10;99.90;;;;;;5037240;28;20033;-75
2021/11/17 05:54:44;;;;;;;26.30;16.10;;;11.10;99.90;;;;;;4973483;28;20033;-75
2021/11/17 05:57:25;;;;;;;25.50;16.00;;;11.10;99.90;;;;;;5070285;28;20358;-75
2021/11/17 06:00:28;;;;;;;27.27;16.63;;;11.10;99.90;;;;;;5064278;28;20052;-75
2021/11/17 06:03:14;;;;;;;31.27;17.08;;;11.10;99.90;;;;;;5078113;28;20378;-74
2021/11/17 06:05:40;;;;;;;27.27;16.75;;;11.10;99.90;;;;;;5040730;28;20029;-75
2021/11/17 06:08:05;;;;;;;28.90;16.40;;;11.10;99.90;;;;;;5051095;28;20020;-74
2021/11/17 06:10:35;;;;;;;33.28;16.55;;;11.10;99.90;;;;;;5036808;28;20029;-74
2021/11/17 06:13:03;;;;;;;28.88;15.80;;;11.10;99.90;;;;;;5054883;28;20009;-75
2021/11/17 06:15:30;;;;;;;31.52;17.40;;;11.10;99.90;;;;;;5054079;28;20037;-75
2021/11/17 06:17:58;;;;;;;27.27;15.75;;;11.10;99.90;;;;;;5037859;28;20075;-75
2021/11/17 06:20:24;;;;;;;34.33;16.05;;;11.20;99.90;;;;;;5054546;28;20029;-74
2021/11/17 06:22:58;;;;;;;34.30;16.63;;;11.20;99.90;;;;;;5054689;28;20104;-75
2021/11/17 06:25:25;;;;;;;27.90;16.58;;;11.20;99.90;;;;;;5053832;28;20021;-74
2021/11/17 06:27:54;;;;;;;46.65;16.63;;;11.20;99.90;;;;;;5056529;28;20021;-74
2021/11/17 06:30:22;;;;;;;29.20;15.18;;;11.30;99.90;;;;;;5054463;28;20116;-75
2021/11/17 06:32:49;;;;;;;27.67;15.23;;;11.30;99.90;;;;;;5055215;28;20021;-74
2021/11/17 06:35:16;;;;;;;22.65;14.50;;;11.40;99.90;;;;;;5053786;28;20104;-75
2021/11/17 06:37:43;;;;;;;27.42;15.23;;;11.40;99.90;;;;;;5040620;28;20041;-75
2021/11/17 06:40:13;;;;;;;24.38;14.57;;;11.50;99.90;;;;;;5054149;28;20075;-74
2021/11/17 06:42:52;;;;;;;33.45;15.35;;;11.60;99.90;;;;;;5053889;28;20477;-73
2021/11/17 06:45:33;;;;;;;26.05;16.63;;;11.60;99.90;;;;;;5072604;28;20035;-74
2021/11/17 06:48:00;;;;;;;25.17;15.63;;;11.80;99.90;;;;;;5035739;28;20408;-75
2021/11/17 06:50:26;;;;;;;25.48;15.52;;;11.80;99.90;;;;;;5054058;28;20017;-74
2021/11/17 06:52:52;;;;;;;24.25;15.73;;;11.80;99.90;;;;;;5054643;28;20032;-74
2021/11/17 06:55:18;;;;;;;23.40;15.30;;;11.90;99.90;;;;;;5036133;28;20028;-74
2021/11/17 06:57:45;;;;;;;18.75;13.48;;;12.00;99.90;;;;;;5039302;28;20036;-74
2021/11/17 07:00:18;;;;;;;23.30;14.15;;;12.20;99.90;;;;;;5072867;28;20024;-74
2021/11/17 07:02:43;;;;;;;21.42;14.35;;;12.70;99.90;;;;;;5072393;28;20016;-74
2021/11/17 07:05:10;;;;;;;29.25;14.15;;;13.20;99.90;;;;;;5073370;28;20051;-75
2021/11/17 07:07:37;;;;;;;31.20;13.27;;;13.70;99.90;;;;;;5073811;28;20108;-74
2021/11/17 07:10:05;;;;;;;22.33;14.25;;;14.10;99.90;;;;;;5074194;28;20021;-75
2021/11/17 07:12:31;;;;;;;21.10;13.25;;;14.40;99.90;;;;;;5055151;28;20037;-75
2021/11/17 07:14:56;;;;;;;19.92;12.80;;;14.90;99.90;;;;;;5055760;28;20112;-75
2021/11/17 07:17:22;;;;;;;20.27;12.70;;;15.00;99.90;;;;;;5049437;28;20044;-73
2021/11/17 07:19:49;;;;;;;25.60;14.05;;;14.70;99.90;;;;;;5063831;28;20515;-74
2021/11/17 07:22:15;;;;;;;22.00;13.68;;;14.30;99.90;;;;;;5072655;28;20024;-74
2021/11/17 07:24:41;;;;;;;27.65;13.27;;;13.80;99.90;;;;;;5072458;28;20027;-75
2021/11/17 07:27:12;;;;;;;29.42;13.60;;;13.40;99.90;;;;;;5055503;28;20029;-74
2021/11/17 07:29:38;;;;;;;24.80;14.18;;;13.20;99.90;;;;;;5062529;28;20020;-74
2021/11/17 07:32:05;;;;;;;26.25;14.55;;;13.00;99.90;;;;;;5060808;28;20033;-74
2021/11/17 07:34:30;;;;;;;30.40;14.02;;;12.80;99.90;;;;;;5072819;28;20048;-74
2021/11/17 07:36:56;;;;;;;28.67;13.52;;;12.70;99.90;;;;;;5071543;28;20535;-74
2021/11/17 07:39:22;;;;;;;25.33;14.13;;;12.60;99.90;;;;;;5071342;28;20499;-75
2021/11/17 07:41:51;;;;;;;23.00;14.32;;;12.50;99.90;;;;;;5071042;28;20024;-75
2021/11/17 07:44:18;;;;;;;21.33;13.60;;;12.60;99.90;;;;;;5069284;28;20465;-75
2021/11/17 07:46:49;;;;;;;30.52;13.85;;;12.60;99.90;;;;;;5066402;28;20032;-74
2021/11/17 07:49:16;;;;;;;25.20;14.53;;;12.60;99.90;;;;;;5062851;28;20033;-74
2021/11/17 07:51:43;;;;;;;25.30;14.10;;;12.70;99.90;;;;;;5053762;28;20499;-73
2021/11/17 07:54:09;;;;;;;35.47;14.15;;;12.80;99.90;;;;;;5069841;28;20028;-75
2021/11/17 07:56:37;;;;;;;23.70;14.85;;;12.70;99.90;;;;;;5066588;28;20036;-75
2021/11/17 07:59:05;;;;;;;25.23;15.07;;;12.70;99.90;;;;;;5067817;28;20033;-74
2021/11/17 08:01:31;;;;;;;24.73;14.13;;;12.80;99.90;;;;;;5076397;28;20480;-73
2021/11/17 08:03:57;;;;;;;23.38;13.93;;;12.80;99.90;;;;;;5077838;28;20024;-72
2021/11/17 08:06:25;;;;;;;20.45;13.65;;;12.80;99.90;;;;;;5055117;28;20025;-72
2021/11/17 08:08:52;;;;;;;21.67;13.98;;;12.80;99.90;;;;;;5055378;28;20056;-74
2021/11/17 08:11:19;;;;;;;24.02;13.23;;;12.80;99.90;;;;;;5078606;28;20383;-73
2021/11/17 08:13:45;;;;;;;20.80;13.35;;;12.90;99.90;;;;;;5077575;28;20077;-72
2021/11/17 08:16:13;;;;;;;23.63;14.32;;;13.00;99.90;;;;;;5078919;28;20021;-73
2021/11/17 08:18:40;;;;;;;25.67;14.75;;;13.00;99.90;;;;;;5075864;28;20081;-73
2021/11/17 08:21:07;;;;;;;25.25;14.45;;;13.00;99.90;;;;;;5056746;28;20066;-73
2021/11/17 08:23:33;;;;;;;25.08;12.63;;;13.00;99.90;;;;;;5077690;28;20029;-72
2021/11/17 08:25:59;;;;;;;25.05;15.13;;;13.10;99.90;;;;;;5077075;28;20035;-73
2021/11/17 08:28:26;;;;;;;23.10;14.25;;;13.20;99.90;;;;;;5069651;28;20028;-73
2021/11/17 08:30:52;;;;;;;21.20;14.00;;;13.20;99.90;;;;;;5067631;28;20016;-72
2021/11/17 08:33:18;;;;;;;22.88;13.32;;;13.30;99.90;;;;;;5072859;28;20369;-72
2021/11/17 08:35:45;;;;;;;26.65;14.02;;;13.30;99.90;;;;;;5071994;28;20044;-75
2021/11/17 08:38:14;;;;;;;21.42;13.57;;;13.30;99.90;;;;;;5075589;28;20043;-75
2021/11/17 08:40:44;;;;;;;19.30;12.85;;;13.40;99.90;;;;;;5075870;28;20028;-74
2021/11/17 08:43:11;;;;;;;27.10;13.98;;;13.40;99.90;;;;;;5075601;28;20081;-74
2021/11/17 08:45:39;;;;;;;20.60;13.93;;;13.40;99.90;;;;;;5074729;28;20038;-73
2021/11/17 08:48:06;;;;;;;23.83;13.35;;;13.50;99.90;;;;;;5058273;28;20027;-73
2021/11/17 08:50:33;;;;;;;21.70;13.75;;;13.50;99.90;;;;;;5074971;28;20032;-74
2021/11/17 08:53:02;;;;;;;28.98;13.75;;;13.50;99.90;;;;;;5056370;28;20024;-73
2021/11/17 08:55:29;;;;;;;21.95;13.95;;;13.60;99.90;;;;;;5074935;28;20025;-73
2021/11/17 08:58:00;;;;;;;22.85;12.55;;;13.60;99.90;;;;;;5071155;28;20033;-74
2021/11/17 09:00:27;;;;;;;24.70;13.80;;;13.70;99.90;;;;;;5057934;28;20012;-74
2021/11/17 09:02:56;;;;;;;25.73;13.55;;;13.70;99.90;;;;;;5075500;28;20085;-73
2021/11/17 09:05:26;;;;;;;19.90;13.32;;;13.80;99.90;;;;;;5074824;28;20021;-75
2021/11/17 09:07:52;;;;;;;22.63;13.23;;;13.90;99.90;;;;;;5074551;28;20036;-73
2021/11/17 09:10:25;;;;;;;30.67;14.00;;;14.00;99.90;;;;;;5075705;28;20012;-75
2021/11/17 09:12:51;;;;;;;20.77;13.20;;;14.00;99.90;;;;;;5075185;28;20425;-74
2021/11/17 09:15:19;;;;;;;22.02;13.50;;;14.10;99.90;;;;;;5072366;28;20020;-74
2021/11/17 09:17:46;;;;;;;26.25;13.05;;;14.20;99.90;;;;;;5056451;28;20567;-73
2021/11/17 09:20:14;;;;;;;24.58;12.48;;;14.30;99.90;;;;;;5074212;28;20111;-74
2021/11/17 09:22:41;;;;;;;22.38;12.80;;;14.40;99.90;;;;;;5072373;28;20099;-73
2021/11/17 09:25:08;;;;;;;20.33;12.27;;;14.50;99.90;;;;;;5072224;28;20020;-74
2021/11/17 09:27:34;;;;;;;23.23;14.00;;;14.50;99.90;;;;;;5070295;28;20051;-73
2021/11/17 09:30:01;;;;;;;20.30;13.57;;;14.50;99.90;;;;;;5069937;28;20155;-74
2021/11/17 09:32:31;;;;;;;22.92;13.50;;;14.50;99.90;;;;;;5058760;28;20029;-74
2021/11/17 09:35:05;;;;;;;19.73;13.05;;;14.50;99.90;;;;;;5071706;28;20090;-74
2021/11/17 09:37:30;;;;;;;20.17;13.82;;;14.60;99.90;;;;;;5073626;28;20055;-75
2021/11/17 09:39:56;;;;;;;19.17;12.80;;;14.60;99.90;;;;;;5074508;28;20112;-74
2021/11/17 09:42:23;;;;;;;19.90;13.15;;;14.70;99.90;;;;;;5064776;28;20020;-74
2021/11/17 09:44:49;;;;;;;21.30;13.50;;;14.70;99.90;;;;;;5070346;28;20029;-73
2021/11/17 09:47:18;;;;;;;19.35;12.75;;;14.80;99.90;;;;;;5072862;28;20434;-74
2021/11/17 09:50:09;;;;;;;21.88;13.30;;;14.90;99.90;;;;;;5053122;28;20032;-75
2021/11/17 09:53:10;;;;;;;18.02;13.07;;;15.00;99.90;;;;;;5069310;28;20025;-75
2021/11/17 09:56:00;;;;;;;25.25;13.18;;;15.20;99.90;;;;;;5043091;28;20090;-74
2021/11/17 09:58:38;;;;;;;20.33;12.68;;;15.30;99.90;;;;;;5054022;28;20136;-75
2021/11/17 10:01:12;;;;;;;20.15;13.38;;;15.50;99.90;;;;;;5072827;28;20024;-75
2021/11/17 10:04:01;;;;;;;17.80;12.32;;;15.60;99.90;;;;;;5071807;28;20040;-75
2021/11/17 10:09:40;;;;;;;22.20;11.98;;;16.10;99.90;;;;;;5069282;28;20497;-74
2021/11/17 10:12:49;;;;;;;26.20;13.20;;;16.30;99.90;;;;;;5064341;28;20031;-74
2021/11/17 10:15:10;;;;;;;23.23;12.27;;;16.60;99.90;;;;;;5071901;28;20025;-73
2021/11/17 10:17:56;;;;;;;16.95;12.00;;;16.60;99.90;;;;;;5058727;28;20032;-74
2021/11/17 10:20:58;;;;;;;22.63;12.23;;;16.70;99.90;;;;;;5069059;28;20046;-73
2021/11/17 10:23:27;;;;;;;16.38;11.30;;;17.00;99.90;;;;;;5051516;28;20097;-74
2021/11/17 10:25:56;;;;;;;27.17;12.25;;;17.40;99.90;;;;;;5065744;28;20032;-74
2021/11/17 10:28:26;;;;;;;28.20;13.02;;;17.60;99.90;;;;;;5066510;28;20024;-74
2021/11/17 10:31:04;;;;;;;18.58;12.90;;;17.60;99.90;;;;;;5064442;28;20140;-75
2021/11/17 10:33:57;;;;;;;20.55;12.57;;;17.50;99.90;;;;;;5065623;28;20036;-75
2021/11/17 10:36:32;;;;;;;19.90;12.35;;;17.30;99.90;;;;;;5052044;28;20075;-74
2021/11/17 10:39:18;;;;;;;17.88;12.52;;;17.20;99.90;;;;;;5071583;28;20105;-74
2021/11/17 10:41:56;;;;;;;20.13;12.10;;;17.00;99.90;;;;;;5054411;28;20027;-74
2021/11/17 10:44:51;;;;;;;19.17;12.25;;;16.80;99.90;;;;;;5069636;28;20020;-74
2021/11/17 10:47:29;;;;;;;17.63;13.35;;;16.60;99.90;;;;;;5069870;28;20078;-73
2021/11/17 10:50:03;;;;;;;20.13;12.55;;;16.60;99.90;;;;;;5072257;28;20103;-72
2021/11/17 10:52:33;;;;;;;22.35;13.32;;;16.60;99.90;;;;;;5073320;28;20483;-72
2021/11/17 10:55:02;;;;;;;19.30;13.10;;;16.60;99.90;;;;;;5068071;28;20028;-74
2021/11/17 10:57:33;;;;;;;19.55;13.63;;;16.50;99.90;;;;;;5053327;28;20103;-75
2021/11/17 10:59:59;;;;;;;28.17;13.07;;;16.50;99.90;;;;;;5057083;28;20033;-73
2021/11/17 11:02:27;;;;;;;22.38;13.05;;;16.50;99.90;;;;;;5049273;28;20495;-73
2021/11/17 11:05:02;;;;;;;20.20;11.85;;;16.40;99.90;;;;;;5070017;28;20025;-74
2021/11/17 11:07:33;;;;;;;19.70;12.75;;;16.30;99.90;;;;;;5066381;28;20037;-77
2021/11/17 11:10:03;;;;;;;20.92;13.02;;;16.30;99.90;;;;;;5072159;28;20476;-75
2021/11/17 11:12:31;;;;;;;20.20;12.60;;;16.40;99.90;;;;;;5072440;28;20384;-73
2021/11/17 11:15:12;;;;;;;21.98;12.38;;;16.40;99.90;;;;;;5071676;28;20019;-74
2021/11/17 11:18:08;;;;;;;19.87;11.60;;;16.60;99.90;;;;;;5053195;28;20480;-75
2021/11/17 11:20:34;;;;;;;23.58;11.75;;;16.80;99.90;;;;;;5071942;28;20027;-74
2021/11/17 11:23:06;;;;;;;22.98;12.43;;;17.10;99.90;;;;;;5071842;28;20025;-74
2021/11/17 11:25:41;;;;;;;;;;;17.40;99.90;;;;;;5072815;28;20041;-73
2021/11/17 11:28:21;;;;;;;21.80;12.02;;;17.60;99.90;;;;;;5071754;28;19915;-74
2021/11/17 11:31:00;;;;;;;24.10;11.95;;;18.10;99.90;;;;;;5071335;28;20404;-74
2021/11/17 11:33:33;;;;;;;21.73;12.75;;;18.50;99.90;;;;;;5053452;28;20024;-75
2021/11/17 11:36:11;;;;;;;28.10;13.10;;;19.00;99.90;;;;;;5046145;28;20048;-74
2021/11/17 11:39:01;;;;;;;20.27;11.98;;;19.50;99.90;;;;;;5052343;28;20036;-75
2021/11/17 11:41:40;;;;;;;24.92;12.60;;;20.10;99.90;;;;;;5052423;28;20025;-73
2021/11/17 11:44:23;;;;;;;20.42;12.30;;;20.50;99.90;;;;;;5052888;28;20037;-74
2021/11/17 11:47:10;;;;;;;24.02;12.75;;;20.90;99.90;;;;;;5060912;28;20020;-74
2021/11/17 11:49:42;;;;;;;20.80;11.68;;;21.00;99.90;;;;;;5071841;28;20092;-74
2021/11/17 11:52:19;;;;;;;32.22;12.82;;;21.20;99.90;;;;;;5071274;28;20043;-73
2021/11/17 11:54:54;;;;;;;20.60;11.98;;;21.20;99.90;;;;;;5071154;28;20444;-75
2021/11/17 11:57:40;;;;;;;18.50;11.30;;;21.20;99.90;;;;;;5070762;28;20473;-75
2021/11/17 12:00:21;;;;;;;16.77;10.85;;;21.20;99.90;;;;;;5071346;28;20067;-73
2021/11/17 12:02:49;;;;;;;26.20;12.65;;;21.30;99.90;;;;;;5072297;28;20380;-74
2021/11/17 12:05:29;;;;;;;31.20;13.35;;;21.30;99.90;;;;;;5071319;28;20100;-74
2021/11/17 12:08:10;;;;;;;21.25;12.07;;;21.20;99.90;;;;;;5071048;28;20017;-74
2021/11/17 12:10:59;;;;;;;22.67;11.77;;;20.90;99.90;;;;;;5070830;28;20028;-73
2021/11/17 12:13:29;;;;;;;20.25;11.52;;;20.30;99.90;;;;;;5069731;28;20392;-74
2021/11/17 12:16:07;;;;;;;27.08;12.05;;;20.00;99.90;;;;;;5070778;28;20130;-74
2021/11/17 12:18:50;;;;;;;21.33;10.75;;;19.70;99.90;;;;;;5070949;28;20044;-74
2021/11/17 12:21:32;;;;;;;19.23;10.35;;;19.40;99.90;;;;;;5053038;28;20021;-74
2021/11/17 12:24:01;;;;;;;;;;;18.70;99.90;;;;;;5052093;28;20039;-73
2021/11/17 12:26:27;;;;;;;20.00;11.95;;;18.20;99.90;;;;;;5071020;28;20390;-73
2021/11/17 12:29:10;;;;;;;17.45;11.00;;;17.90;99.90;;;;;;5070314;28;20439;-73
2021/11/17 12:31:48;;;;;;;19.40;12.48;;;17.70;99.90;;;;;;5069432;28;20017;-74
2021/11/17 12:34:32;;;;;;;19.38;11.80;;;17.50;99.90;;;;;;5069733;28;20089;-73
2021/11/17 12:37:21;;;;;;;19.48;12.27;;;17.40;99.90;;;;;;5068043;28;20068;-73
2021/11/17 12:39:47;;;;;;;19.27;11.43;;;17.30;99.90;;;;;;5068999;28;20028;-74
2021/11/17 12:42:13;;;;;;;22.33;11.88;;;17.20;99.90;;;;;;5069384;28;20028;-73
2021/11/17 12:44:48;;;;;;;20.23;12.75;;;17.10;99.90;;;;;;5052307;28;20481;-74
2021/11/17 12:47:22;;;;;;;26.25;13.55;;;17.10;99.90;;;;;;5070654;28;20032;-73
2021/11/17 12:49:50;;;;;;;19.50;12.90;;;17.10;99.90;;;;;;5070278;28;20024;-72
2021/11/17 12:52:34;;;;;;;25.98;12.18;;;17.10;99.90;;;;;;5065811;28;20016;-74
2021/11/17 12:55:28;;;;;;;20.08;12.93;;;17.00;99.90;;;;;;5066180;28;20028;-73
2021/11/17 12:58:33;;;;;;;22.40;13.65;;;16.90;99.90;;;;;;5068351;28;20032;-74
2021/11/17 13:01:14;;;;;;;19.55;13.68;;;16.90;99.90;;;;;;5070219;28;20044;-74
2021/11/17 13:04:05;;;;;;;26.35;13.43;;;16.80;99.90;;;;;;5069729;28;20032;-74
2021/11/17 13:06:39;;;;;;;18.60;13.02;;;16.80;99.90;;;;;;5073526;28;20031;-75
2021/11/17 13:09:08;;;;;;;23.10;12.82;;;16.80;99.90;;;;;;5070156;28;20100;-74
2021/11/17 13:11:47;;;;;;;20.88;13.43;;;16.70;99.90;;;;;;5069690;28;20035;-74
2021/11/17 13:14:26;;;;;;;22.88;14.07;;;16.70;99.90;;;;;;5069658;28;20556;-74
2021/11/17 13:16:58;;;;;;;23.30;14.45;;;16.70;99.90;;;;;;5069729;28;20028;-75
2021/11/17 13:19:34;;;;;;;25.13;13.98;;;16.60;99.90;;;;;;5066628;28;20043;-75
2021/11/17 13:22:17;;;;;;;27.42;13.95;;;16.50;99.90;;;;;;5070887;28;20028;-74
2021/11/17 13:24:45;;;;;;;24.80;13.88;;;16.50;99.90;;;;;;5073167;28;20493;-74
2021/11/17 13:27:11;;;;;;;26.33;14.35;;;16.50;99.90;;;;;;5044465;28;20024;-74
2021/11/17 13:30:00;;;;;;;21.88;13.50;;;16.50;99.90;;;;;;5074026;28;20047;-74
2021/11/17 13:32:33;;;;;;;23.27;14.15;;;16.50;99.90;;;;;;5070740;28;20408;-74
2021/11/17 13:35:20;;;;;;;24.63;13.93;;;16.40;99.90;;;;;;5073579;28;20037;-74
2021/11/17 13:37:47;;;;;;;25.33;13.80;;;16.50;99.90;;;;;;5047696;28;20389;-74
2021/11/17 13:40:20;;;;;;;24.48;14.23;;;16.50;99.90;;;;;;5053670;28;20481;-74
2021/11/17 13:42:47;;;;;;;21.45;13.43;;;16.40;99.90;;;;;;5075372;28;20076;-74
2021/11/17 13:45:27;;;;;;;24.95;14.10;;;16.50;99.90;;;;;;5065448;28;20036;-73
2021/11/17 13:47:53;;;;;;;25.00;14.02;;;16.50;99.90;;;;;;5069932;28;20112;-74
2021/11/17 13:50:25;;;;;;;25.42;13.35;;;16.50;99.90;;;;;;5069090;28;20028;-73
2021/11/17 13:52:52;;;;;;;21.88;14.05;;;16.50;99.90;;;;;;5073257;28;20021;-73
2021/11/17 13:55:25;;;;;;;23.40;13.80;;;16.40;99.90;;;;;;5073110;28;20017;-73
2021/11/17 13:57:52;;;;;;;25.17;13.27;;;16.40;99.90;;;;;;5055635;28;20041;-74
2021/11/17 14:00:20;;;;;;;25.48;14.27;;;16.40;99.90;;;;;;5073375;28;20017;-74
2021/11/17 14:02:47;;;;;;;21.65;13.13;;;16.40;99.90;;;;;;5072987;28;20372;-75
2021/11/17 14:05:21;;;;;;;23.10;13.63;;;16.40;99.90;;;;;;5072630;28;20454;-75
2021/11/17 14:07:48;;;;;;;19.58;13.57;;;16.40;99.90;;;;;;5072593;28;20017;-74
2021/11/17 14:10:17;;;;;;;25.13;13.00;;;16.40;99.90;;;;;;5072468;28;20021;-74
2021/11/17 14:12:43;;;;;;;29.88;13.32;;;16.40;99.90;;;;;;5070433;28;20511;-74
2021/11/17 14:15:10;;;;;;;31.60;22.00;;;16.40;99.90;;;;;;5073351;28;20468;-74
2021/11/17 14:17:36;;;;;;;29.48;20.77;;;16.40;99.90;;;;;;5072658;28;20012;-74
2021/11/17 14:20:05;;;;;;;24.23;15.15;;;16.40;99.90;;;;;;5054050;28;20112;-74
2021/11/17 14:22:31;;;;;;;21.80;14.27;;;16.30;99.90;;;;;;5053759;28;20028;-76
2021/11/17 14:25:01;;;;;;;23.17;14.57;;;16.40;99.90;;;;;;5072718;28;20380;-75
2021/11/17 14:27:29;;;;;;;31.70;14.27;;;16.30;99.90;;;;;;5054211;28;20552;-73
2021/11/17 14:29:58;;;;;;;29.63;14.63;;;16.20;99.90;;;;;;5053674;28;20032;-75
2021/11/17 14:32:35;;;;;;;22.75;14.35;;;16.20;99.90;;;;;;5052158;28;20024;-74
2021/11/17 14:35:02;;;;;;;24.38;15.32;;;16.10;99.90;;;;;;5051758;28;20122;-75
2021/11/17 14:37:28;;;;;;;25.17;15.20;;;16.10;99.90;;;;;;5070698;28;20040;-74
2021/11/17 14:39:55;;;;;;;24.05;15.98;;;16.00;99.90;;;;;;5073139;28;20017;-74
2021/11/17 14:42:20;;;;;;;24.52;15.75;;;15.90;99.90;;;;;;5071615;28;20137;-74
2021/11/17 14:44:46;;;;;;;28.48;14.73;;;15.90;99.90;;;;;;5070174;28;20441;-74
2021/11/17 14:47:13;;;;;;;28.52;15.77;;;15.90;99.90;;;;;;5071165;28;20043;-74
2021/11/17 14:49:39;;;;;;;27.45;15.85;;;15.90;99.90;;;;;;5053459;28;20042;-74
2021/11/17 14:52:12;;;;;;;38.15;16.27;;;15.80;99.90;;;;;;5066819;28;20528;-75
2021/11/17 14:54:38;;;;;;;24.42;16.83;;;15.80;99.90;;;;;;5072851;28;20021;-75
2021/11/17 14:57:05;;;;;;;28.13;16.70;;;15.80;99.90;;;;;;5054746;28;20033;-75
2021/11/17 14:59:32;;;;;;;34.28;18.65;;;15.80;99.90;;;;;;5071948;28;20550;-74
2021/11/17 15:01:59;;;;;;;29.75;16.23;;;15.70;99.90;;;;;;5069500;28;20025;-72
2021/11/17 15:04:24;;;;;;;28.45;16.85;;;15.70;99.90;;;;;;5057650;28;20032;-73
2021/11/17 15:06:50;;;;;;;31.63;17.10;;;15.70;99.90;;;;;;5071662;28;20530;-73
2021/11/17 15:09:18;;;;;;;29.25;17.75;;;15.60;99.90;;;;;;5070280;28;20024;-74
2021/11/17 15:11:46;;;;;;;29.23;17.17;;;15.50;99.90;;;;;;5058225;28;20025;-75
2021/11/17 15:14:12;;;;;;;29.63;18.27;;;15.50;99.90;;;;;;5071056;28;20021;-74
2021/11/17 15:16:38;;;;;;;30.23;18.08;;;15.50;99.90;;;;;;5063437;28;20025;-74
2021/11/17 15:19:03;;;;;;;34.35;17.75;;;15.40;99.90;;;;;;5068328;28;20044;-74
2021/11/17 15:21:29;;;;;;;32.00;18.73;;;15.40;99.90;;;;;;5071663;28;20102;-74
2021/11/17 15:23:55;;;;;;;62.13;27.85;;;15.30;99.90;;;;;;5053439;28;20054;-74
2021/11/17 15:26:21;;;;;;;32.22;18.63;;;15.20;99.90;;;;;;5071534;28;20063;-75
2021/11/17 15:28:50;;;;;;;38.25;21.38;;;15.10;99.90;;;;;;5071807;28;20449;-75
2021/11/17 15:31:28;;;;;;;32.92;18.13;;;15.10;99.90;;;;;;5054241;28;20041;-74
2021/11/17 15:33:55;;;;;;;33.90;19.35;;;15.10;99.90;;;;;;5071383;28;20025;-75
2021/11/17 15:36:23;;;;;;;34.90;19.45;;;15.10;99.90;;;;;;5052595;28;20045;-75